sensor_id;sensor_type;location;lat;lon;timestamp;P1;durP1;ratioP1;P2;durP2;ratioP2
23466;SDS011;59740;47.696;11.746;2024-01-11T00:02:07;27.83;;;15.10;;
23466;SDS011;59740;47.696;11.746;2024-01-11T00:04:36;22.73;;;12.25;;
23466;SDS011;59740;47.696;11.746;2024-01-11T00:07:06;28.63;;;16.00;;
23466;SDS011;59740;47.696;11.746;2024-01-11T00:09:38;32.22;;;17.17;;
23466;SDS011;59740;47.696;11.746;2024-01-11T00:12:08;29.50;;;15.90;;
23466;SDS011;59740;47.696;11.746;2024-01-11T00:14:36;30.13;;;15.75;;
23466;SDS011;59740;47.696;11.746;2024-01-11T00:17:04;24.33;;;13.18;;
23466;SDS011;59740;47.696;11.746;2024-01-11T00:19:33;23.38;;;12.15;;
23466;SDS011;59740;47.696;11.746;2024-01-11T00:22:01;16.55;;;9.15;;
23466;SDS011;59740;47.696;11.746;2024-01-11T00:24:30;19.63;;;10.20;;
23466;SDS011;59740;47.696;11.746;2024-01-11T00:27:05;14.43;;;7.28;;
23466;SDS011;59740;47.696;11.746;2024-01-11T00:29:35;12.27;;;6.55;;
23466;SDS011;59740;47.696;11.746;2024-01-11T00:32:04;12.55;;;7.15;;
23466;SDS011;59740;47.696;11.746;2024-01-11T00:34:33;11.20;;;6.47;;
23466;SDS011;59740;47.696;11.746;2024-01-11T00:37:03;9.77;;;5.15;;
23466;SDS011;59740;47.696;11.746;2024-01-11T00:39:31;9.65;;;5.07;;
23466;SDS011;59740;47.696;11.746;2024-01-11T00:42:00;8.50;;;4.78;;
23466;SDS011;59740;47.696;11.746;2024-01-11T00:44:30;9.27;;;5.07;;
23466;SDS011;59740;47.696;11.746;2024-01-11T00:46:58;6.85;;;3.88;;
23466;SDS011;59740;47.696;11.746;2024-01-11T00:49:27;6.03;;;3.90;;
23466;SDS011;59740;47.696;11.746;2024-01-11T00:51:55;7.97;;;4.57;;
23466;SDS011;59740;47.696;11.746;2024-01-11T00:54:24;7.38;;;4.53;;
23466;SDS011;59740;47.696;11.746;2024-01-11T00:56:52;6.43;;;4.40;;
23466;SDS011;59740;47.696;11.746;2024-01-11T00:59:20;6.07;;;3.58;;
23466;SDS011;59740;47.696;11.746;2024-01-11T01:01:50;4.65;;;2.97;;
23466;SDS011;59740;47.696;11.746;2024-01-11T01:04:19;4.45;;;2.10;;
23466;SDS011;59740;47.696;11.746;2024-01-11T01:06:47;5.07;;;2.67;;
23466;SDS011;59740;47.696;11.746;2024-01-11T01:09:16;4.32;;;2.17;;
23466;SDS011;59740;47.696;11.746;2024-01-11T01:11:44;4.30;;;2.22;;
23466;SDS011;59740;47.696;11.746;2024-01-11T01:14:12;3.28;;;2.25;;
23466;SDS011;59740;47.696;11.746;2024-01-11T01:16:41;4.90;;;2.50;;
23466;SDS011;59740;47.696;11.746;2024-01-11T01:19:11;4.15;;;2.55;;
23466;SDS011;59740;47.696;11.746;2024-01-11T01:21:39;3.80;;;2.20;;
23466;SDS011;59740;47.696;11.746;2024-01-11T01:24:08;4.60;;;2.45;;
23466;SDS011;59740;47.696;11.746;2024-01-11T01:26:36;4.57;;;2.58;;
23466;SDS011;59740;47.696;11.746;2024-01-11T01:29:05;5.07;;;2.85;;
23466;SDS011;59740;47.696;11.746;2024-01-11T01:31:33;5.30;;;2.80;;
23466;SDS011;59740;47.696;11.746;2024-01-11T01:34:04;4.57;;;2.50;;
23466;SDS011;59740;47.696;11.746;2024-01-11T01:36:34;3.78;;;1.90;;
23466;SDS011;59740;47.696;11.746;2024-01-11T01:39:02;3.92;;;1.90;;
23466;SDS011;59740;47.696;11.746;2024-01-11T01:41:31;3.83;;;1.98;;
23466;SDS011;59740;47.696;11.746;2024-01-11T01:43:59;4.88;;;2.45;;
23466;SDS011;59740;47.696;11.746;2024-01-11T01:46:28;4.80;;;2.55;;
23466;SDS011;59740;47.696;11.746;2024-01-11T01:48:57;5.15;;;3.20;;
23466;SDS011;59740;47.696;11.746;2024-01-11T01:51:26;5.60;;;3.22;;
23466;SDS011;59740;47.696;11.746;2024-01-11T01:54:00;6.18;;;3.25;;
23466;SDS011;59740;47.696;11.746;2024-01-11T01:56:30;5.63;;;2.83;;
23466;SDS011;59740;47.696;11.746;2024-01-11T01:58:59;5.40;;;2.88;;
23466;SDS011;59740;47.696;11.746;2024-01-11T02:01:30;5.35;;;2.85;;
23466;SDS011;59740;47.696;11.746;2024-01-11T02:03:58;5.10;;;2.70;;
23466;SDS011;59740;47.696;11.746;2024-01-11T02:06:27;3.88;;;2.20;;
23466;SDS011;59740;47.696;11.746;2024-01-11T02:09:00;5.53;;;2.38;;
23466;SDS011;59740;47.696;11.746;2024-01-11T02:11:30;5.07;;;2.55;;
23466;SDS011;59740;47.696;11.746;2024-01-11T02:13:59;4.43;;;2.40;;
23466;SDS011;59740;47.696;11.746;2024-01-11T02:16:27;4.97;;;2.25;;
23466;SDS011;59740;47.696;11.746;2024-01-11T02:18:56;6.82;;;2.55;;
23466;SDS011;59740;47.696;11.746;2024-01-11T02:21:24;3.83;;;2.20;;
23466;SDS011;59740;47.696;11.746;2024-01-11T02:24:03;4.03;;;2.40;;
23466;SDS011;59740;47.696;11.746;2024-01-11T02:26:32;4.80;;;2.55;;
23466;SDS011;59740;47.696;11.746;2024-01-11T02:29:01;4.28;;;2.33;;
23466;SDS011;59740;47.696;11.746;2024-01-11T02:31:30;5.18;;;2.55;;
23466;SDS011;59740;47.696;11.746;2024-01-11T02:33:58;3.70;;;2.13;;
23466;SDS011;59740;47.696;11.746;2024-01-11T02:36:27;5.15;;;2.33;;
23466;SDS011;59740;47.696;11.746;2024-01-11T02:38:56;3.47;;;1.95;;
23466;SDS011;59740;47.696;11.746;2024-01-11T02:41:25;3.50;;;1.90;;
23466;SDS011;59740;47.696;11.746;2024-01-11T02:43:55;3.60;;;2.25;;
23466;SDS011;59740;47.696;11.746;2024-01-11T02:46:24;3.42;;;1.83;;
23466;SDS011;59740;47.696;11.746;2024-01-11T02:48:55;3.90;;;2.17;;
23466;SDS011;59740;47.696;11.746;2024-01-11T02:51:23;4.03;;;2.10;;
23466;SDS011;59740;47.696;11.746;2024-01-11T02:53:52;4.78;;;2.40;;
23466;SDS011;59740;47.696;11.746;2024-01-11T02:56:20;3.28;;;1.60;;
23466;SDS011;59740;47.696;11.746;2024-01-11T02:58:51;3.22;;;1.77;;
23466;SDS011;59740;47.696;11.746;2024-01-11T03:01:20;3.45;;;1.95;;
23466;SDS011;59740;47.696;11.746;2024-01-11T03:03:48;3.55;;;1.77;;
23466;SDS011;59740;47.696;11.746;2024-01-11T03:06:18;3.33;;;1.90;;
23466;SDS011;59740;47.696;11.746;2024-01-11T03:08:49;4.65;;;2.05;;
23466;SDS011;59740;47.696;11.746;2024-01-11T03:11:18;4.18;;;1.92;;
23466;SDS011;59740;47.696;11.746;2024-01-11T03:13:46;3.58;;;1.98;;
23466;SDS011;59740;47.696;11.746;2024-01-11T03:16:16;3.17;;;1.70;;
23466;SDS011;59740;47.696;11.746;2024-01-11T03:18:44;3.95;;;2.00;;
23466;SDS011;59740;47.696;11.746;2024-01-11T03:21:13;2.80;;;1.52;;
23466;SDS011;59740;47.696;11.746;2024-01-11T03:23:41;2.60;;;1.40;;
23466;SDS011;59740;47.696;11.746;2024-01-11T03:26:14;3.38;;;1.80;;
23466;SDS011;59740;47.696;11.746;2024-01-11T03:28:44;2.93;;;1.57;;
23466;SDS011;59740;47.696;11.746;2024-01-11T03:31:12;3.50;;;1.70;;
23466;SDS011;59740;47.696;11.746;2024-01-11T03:33:42;4.43;;;2.10;;
23466;SDS011;59740;47.696;11.746;2024-01-11T03:36:11;3.20;;;2.20;;
23466;SDS011;59740;47.696;11.746;2024-01-11T03:38:39;4.30;;;2.22;;
23466;SDS011;59740;47.696;11.746;2024-01-11T03:41:08;5.95;;;3.25;;
23466;SDS011;59740;47.696;11.746;2024-01-11T03:43:38;10.75;;;5.50;;
23466;SDS011;59740;47.696;11.746;2024-01-11T03:46:06;18.80;;;8.73;;
23466;SDS011;59740;47.696;11.746;2024-01-11T03:48:35;20.25;;;10.73;;
23466;SDS011;59740;47.696;11.746;2024-01-11T03:51:05;23.75;;;11.85;;
23466;SDS011;59740;47.696;11.746;2024-01-11T03:53:34;27.10;;;13.07;;
23466;SDS011;59740;47.696;11.746;2024-01-11T03:56:04;29.67;;;14.80;;
23466;SDS011;59740;47.696;11.746;2024-01-11T03:58:35;32.35;;;15.95;;
23466;SDS011;59740;47.696;11.746;2024-01-11T04:01:06;31.15;;;15.13;;
23466;SDS011;59740;47.696;11.746;2024-01-11T04:03:37;28.25;;;14.18;;
23466;SDS011;59740;47.696;11.746;2024-01-11T04:06:07;30.42;;;14.75;;
23466;SDS011;59740;47.696;11.746;2024-01-11T04:08:36;31.42;;;15.35;;
23466;SDS011;59740;47.696;11.746;2024-01-11T04:11:04;29.67;;;14.68;;
23466;SDS011;59740;47.696;11.746;2024-01-11T04:13:33;29.30;;;14.40;;
23466;SDS011;59740;47.696;11.746;2024-01-11T04:16:03;30.17;;;14.13;;
23466;SDS011;59740;47.696;11.746;2024-01-11T04:18:32;28.65;;;14.40;;
23466;SDS011;59740;47.696;11.746;2024-01-11T04:21:01;29.35;;;14.55;;
23466;SDS011;59740;47.696;11.746;2024-01-11T04:23:31;29.13;;;13.90;;
23466;SDS011;59740;47.696;11.746;2024-01-11T04:25:59;27.58;;;14.93;;
23466;SDS011;59740;47.696;11.746;2024-01-11T04:28:28;27.48;;;13.93;;
23466;SDS011;59740;47.696;11.746;2024-01-11T04:30:56;29.80;;;14.07;;
23466;SDS011;59740;47.696;11.746;2024-01-11T04:33:25;31.38;;;15.48;;
23466;SDS011;59740;47.696;11.746;2024-01-11T04:35:53;31.65;;;14.95;;
23466;SDS011;59740;47.696;11.746;2024-01-11T04:38:22;27.75;;;14.55;;
23466;SDS011;59740;47.696;11.746;2024-01-11T04:40:51;32.35;;;15.13;;
23466;SDS011;59740;47.696;11.746;2024-01-11T04:43:20;27.02;;;13.00;;
23466;SDS011;59740;47.696;11.746;2024-01-11T04:45:48;29.52;;;14.30;;
23466;SDS011;59740;47.696;11.746;2024-01-11T04:48:17;26.80;;;14.32;;
23466;SDS011;59740;47.696;11.746;2024-01-11T04:50:46;42.38;;;14.75;;
23466;SDS011;59740;47.696;11.746;2024-01-11T04:53:14;28.27;;;13.23;;
23466;SDS011;59740;47.696;11.746;2024-01-11T04:55:43;30.77;;;13.70;;
23466;SDS011;59740;47.696;11.746;2024-01-11T04:58:13;23.63;;;12.32;;
23466;SDS011;59740;47.696;11.746;2024-01-11T05:00:41;25.50;;;12.68;;
23466;SDS011;59740;47.696;11.746;2024-01-11T05:03:09;22.85;;;11.63;;
23466;SDS011;59740;47.696;11.746;2024-01-11T05:05:38;26.13;;;12.40;;
23466;SDS011;59740;47.696;11.746;2024-01-11T05:08:06;23.55;;;11.57;;
23466;SDS011;59740;47.696;11.746;2024-01-11T05:10:35;22.77;;;12.27;;
23466;SDS011;59740;47.696;11.746;2024-01-11T05:13:04;31.33;;;14.43;;
23466;SDS011;59740;47.696;11.746;2024-01-11T05:15:34;24.67;;;12.77;;
23466;SDS011;59740;47.696;11.746;2024-01-11T05:18:03;34.00;;;13.32;;
23466;SDS011;59740;47.696;11.746;2024-01-11T05:20:32;22.27;;;11.45;;
23466;SDS011;59740;47.696;11.746;2024-01-11T05:23:01;23.92;;;11.90;;
23466;SDS011;59740;47.696;11.746;2024-01-11T05:25:29;21.63;;;11.27;;
23466;SDS011;59740;47.696;11.746;2024-01-11T05:28:00;26.80;;;11.82;;
23466;SDS011;59740;47.696;11.746;2024-01-11T05:30:29;21.45;;;11.40;;
23466;SDS011;59740;47.696;11.746;2024-01-11T05:32:59;19.73;;;10.82;;
23466;SDS011;59740;47.696;11.746;2024-01-11T05:35:28;20.50;;;10.88;;
23466;SDS011;59740;47.696;11.746;2024-01-11T05:37:56;18.90;;;10.68;;
23466;SDS011;59740;47.696;11.746;2024-01-11T05:40:25;21.50;;;10.95;;
23466;SDS011;59740;47.696;11.746;2024-01-11T05:42:54;18.27;;;10.57;;
23466;SDS011;59740;47.696;11.746;2024-01-11T05:45:22;21.05;;;11.18;;
23466;SDS011;59740;47.696;11.746;2024-01-11T05:48:07;21.90;;;10.60;;
23466;SDS011;59740;47.696;11.746;2024-01-11T05:50:38;20.50;;;10.63;;
23466;SDS011;59740;47.696;11.746;2024-01-11T05:53:07;19.27;;;10.52;;
23466;SDS011;59740;47.696;11.746;2024-01-11T05:55:35;20.02;;;9.32;;
23466;SDS011;59740;47.696;11.746;2024-01-11T05:58:04;20.85;;;10.85;;
23466;SDS011;59740;47.696;11.746;2024-01-11T06:00:32;21.00;;;10.65;;
23466;SDS011;59740;47.696;11.746;2024-01-11T06:03:01;16.88;;;9.68;;
23466;SDS011;59740;47.696;11.746;2024-01-11T06:05:33;32.85;;;18.98;;
23466;SDS011;59740;47.696;11.746;2024-01-11T06:08:01;26.52;;;14.52;;
23466;SDS011;59740;47.696;11.746;2024-01-11T06:10:30;18.85;;;9.65;;
23466;SDS011;59740;47.696;11.746;2024-01-11T06:12:58;17.92;;;9.13;;
23466;SDS011;59740;47.696;11.746;2024-01-11T06:15:27;21.13;;;10.15;;
23466;SDS011;59740;47.696;11.746;2024-01-11T06:17:55;22.17;;;11.73;;
23466;SDS011;59740;47.696;11.746;2024-01-11T06:20:24;24.77;;;12.40;;
23466;SDS011;59740;47.696;11.746;2024-01-11T06:22:54;24.02;;;13.40;;
23466;SDS011;59740;47.696;11.746;2024-01-11T06:25:23;29.40;;;14.18;;
23466;SDS011;59740;47.696;11.746;2024-01-11T06:27:51;27.63;;;14.52;;
23466;SDS011;59740;47.696;11.746;2024-01-11T06:30:19;26.67;;;14.25;;
23466;SDS011;59740;47.696;11.746;2024-01-11T06:32:48;28.40;;;14.65;;
23466;SDS011;59740;47.696;11.746;2024-01-11T06:35:17;28.13;;;14.88;;
23466;SDS011;59740;47.696;11.746;2024-01-11T06:37:46;28.75;;;14.10;;
23466;SDS011;59740;47.696;11.746;2024-01-11T06:40:16;30.42;;;14.25;;
23466;SDS011;59740;47.696;11.746;2024-01-11T06:42:46;26.33;;;12.45;;
23466;SDS011;59740;47.696;11.746;2024-01-11T06:45:15;25.15;;;12.50;;
23466;SDS011;59740;47.696;11.746;2024-01-11T06:47:43;26.13;;;13.23;;
23466;SDS011;59740;47.696;11.746;2024-01-11T06:50:13;29.52;;;13.13;;
23466;SDS011;59740;47.696;11.746;2024-01-11T06:52:41;23.50;;;11.98;;
23466;SDS011;59740;47.696;11.746;2024-01-11T06:55:10;23.70;;;11.65;;
23466;SDS011;59740;47.696;11.746;2024-01-11T06:57:40;24.95;;;12.38;;
23466;SDS011;59740;47.696;11.746;2024-01-11T07:00:08;22.35;;;11.32;;
23466;SDS011;59740;47.696;11.746;2024-01-11T07:02:37;22.70;;;11.18;;
23466;SDS011;59740;47.696;11.746;2024-01-11T07:05:07;22.77;;;11.35;;
23466;SDS011;59740;47.696;11.746;2024-01-11T07:07:35;24.58;;;12.10;;
23466;SDS011;59740;47.696;11.746;2024-01-11T07:10:05;21.70;;;12.00;;
23466;SDS011;59740;47.696;11.746;2024-01-11T07:12:35;26.85;;;12.82;;
23466;SDS011;59740;47.696;11.746;2024-01-11T07:15:06;28.20;;;13.95;;
23466;SDS011;59740;47.696;11.746;2024-01-11T07:17:36;27.38;;;13.25;;
23466;SDS011;59740;47.696;11.746;2024-01-11T07:20:05;23.55;;;12.55;;
23466;SDS011;59740;47.696;11.746;2024-01-11T07:22:35;28.75;;;13.90;;
23466;SDS011;59740;47.696;11.746;2024-01-11T07:25:07;30.00;;;14.18;;
23466;SDS011;59740;47.696;11.746;2024-01-11T07:27:35;27.23;;;13.50;;
23466;SDS011;59740;47.696;11.746;2024-01-11T07:30:06;24.65;;;12.65;;
23466;SDS011;59740;47.696;11.746;2024-01-11T07:32:35;29.42;;;13.35;;
23466;SDS011;59740;47.696;11.746;2024-01-11T07:35:05;27.23;;;13.77;;
23466;SDS011;59740;47.696;11.746;2024-01-11T07:37:39;29.98;;;13.57;;
23466;SDS011;59740;47.696;11.746;2024-01-11T07:40:09;30.00;;;15.05;;
23466;SDS011;59740;47.696;11.746;2024-01-11T07:42:38;27.27;;;14.27;;
23466;SDS011;59740;47.696;11.746;2024-01-11T07:45:08;28.17;;;12.48;;
23466;SDS011;59740;47.696;11.746;2024-01-11T07:47:38;27.70;;;13.70;;
23466;SDS011;59740;47.696;11.746;2024-01-11T07:50:07;25.48;;;12.75;;
23466;SDS011;59740;47.696;11.746;2024-01-11T07:52:37;22.73;;;11.90;;
23466;SDS011;59740;47.696;11.746;2024-01-11T07:55:08;25.40;;;12.48;;
23466;SDS011;59740;47.696;11.746;2024-01-11T07:57:39;25.10;;;12.73;;
23466;SDS011;59740;47.696;11.746;2024-01-11T08:00:10;24.42;;;12.23;;
23466;SDS011;59740;47.696;11.746;2024-01-11T08:02:39;22.85;;;12.15;;
23466;SDS011;59740;47.696;11.746;2024-01-11T08:05:08;28.38;;;12.30;;
23466;SDS011;59740;47.696;11.746;2024-01-11T08:07:37;30.92;;;13.07;;
23466;SDS011;59740;47.696;11.746;2024-01-11T08:10:06;24.70;;;12.77;;
23466;SDS011;59740;47.696;11.746;2024-01-11T08:12:36;23.80;;;12.98;;
23466;SDS011;59740;47.696;11.746;2024-01-11T08:15:05;26.05;;;13.00;;
23466;SDS011;59740;47.696;11.746;2024-01-11T08:17:35;25.85;;;12.68;;
23466;SDS011;59740;47.696;11.746;2024-01-11T08:20:05;26.02;;;13.48;;
23466;SDS011;59740;47.696;11.746;2024-01-11T08:22:35;27.75;;;14.20;;
23466;SDS011;59740;47.696;11.746;2024-01-11T08:25:04;29.50;;;14.27;;
23466;SDS011;59740;47.696;11.746;2024-01-11T08:27:33;30.15;;;13.93;;
23466;SDS011;59740;47.696;11.746;2024-01-11T08:30:02;27.40;;;13.02;;
23466;SDS011;59740;47.696;11.746;2024-01-11T08:32:32;28.30;;;13.52;;
23466;SDS011;59740;47.696;11.746;2024-01-11T08:35:07;27.20;;;13.63;;
23466;SDS011;59740;47.696;11.746;2024-01-11T08:37:38;27.67;;;13.38;;
23466;SDS011;59740;47.696;11.746;2024-01-11T08:40:07;28.30;;;12.68;;
23466;SDS011;59740;47.696;11.746;2024-01-11T08:42:38;24.33;;;12.07;;
23466;SDS011;59740;47.696;11.746;2024-01-11T08:45:08;26.63;;;12.80;;
23466;SDS011;59740;47.696;11.746;2024-01-11T08:47:37;29.58;;;13.80;;
23466;SDS011;59740;47.696;11.746;2024-01-11T08:50:08;28.23;;;13.00;;
23466;SDS011;59740;47.696;11.746;2024-01-11T08:52:40;30.70;;;13.18;;
23466;SDS011;59740;47.696;11.746;2024-01-11T08:55:09;24.42;;;12.05;;
23466;SDS011;59740;47.696;11.746;2024-01-11T08:57:39;24.45;;;12.00;;
23466;SDS011;59740;47.696;11.746;2024-01-11T09:00:08;28.90;;;13.52;;
23466;SDS011;59740;47.696;11.746;2024-01-11T09:02:37;25.55;;;12.52;;
23466;SDS011;59740;47.696;11.746;2024-01-11T09:05:06;26.02;;;12.50;;
23466;SDS011;59740;47.696;11.746;2024-01-11T09:07:36;24.15;;;12.70;;
23466;SDS011;59740;47.696;11.746;2024-01-11T09:10:05;24.45;;;12.00;;
23466;SDS011;59740;47.696;11.746;2024-01-11T09:12:36;23.05;;;10.93;;
23466;SDS011;59740;47.696;11.746;2024-01-11T09:15:05;22.08;;;11.98;;
23466;SDS011;59740;47.696;11.746;2024-01-11T09:17:34;22.65;;;11.95;;
23466;SDS011;59740;47.696;11.746;2024-01-11T09:20:04;26.45;;;13.10;;
23466;SDS011;59740;47.696;11.746;2024-01-11T09:22:34;25.02;;;12.35;;
23466;SDS011;59740;47.696;11.746;2024-01-11T09:25:03;24.98;;;12.48;;
23466;SDS011;59740;47.696;11.746;2024-01-11T09:27:33;22.30;;;11.80;;
23466;SDS011;59740;47.696;11.746;2024-01-11T09:30:02;22.95;;;12.07;;
23466;SDS011;59740;47.696;11.746;2024-01-11T09:32:32;23.70;;;12.25;;
23466;SDS011;59740;47.696;11.746;2024-01-11T09:35:01;25.73;;;13.20;;
23466;SDS011;59740;47.696;11.746;2024-01-11T09:37:31;27.38;;;13.70;;
23466;SDS011;59740;47.696;11.746;2024-01-11T09:40:01;26.80;;;13.82;;
23466;SDS011;59740;47.696;11.746;2024-01-11T09:42:33;28.05;;;15.45;;
23466;SDS011;59740;47.696;11.746;2024-01-11T09:45:02;29.25;;;14.73;;
23466;SDS011;59740;47.696;11.746;2024-01-11T09:47:32;27.77;;;14.32;;
23466;SDS011;59740;47.696;11.746;2024-01-11T09:50:02;32.33;;;15.18;;
23466;SDS011;59740;47.696;11.746;2024-01-11T09:52:31;28.65;;;15.85;;
23466;SDS011;59740;47.696;11.746;2024-01-11T09:55:03;27.23;;;14.85;;
23466;SDS011;59740;47.696;11.746;2024-01-11T09:57:32;27.05;;;15.05;;
23466;SDS011;59740;47.696;11.746;2024-01-11T10:00:05;30.30;;;15.13;;
23466;SDS011;59740;47.696;11.746;2024-01-11T10:02:36;26.95;;;15.15;;
23466;SDS011;59740;47.696;11.746;2024-01-11T10:05:05;25.35;;;13.65;;
23466;SDS011;59740;47.696;11.746;2024-01-11T10:07:37;26.38;;;14.73;;
23466;SDS011;59740;47.696;11.746;2024-01-11T10:10:06;25.98;;;12.98;;
23466;SDS011;59740;47.696;11.746;2024-01-11T10:12:35;25.60;;;14.10;;
23466;SDS011;59740;47.696;11.746;2024-01-11T10:15:05;25.92;;;13.27;;
23466;SDS011;59740;47.696;11.746;2024-01-11T10:17:36;28.60;;;14.27;;
23466;SDS011;59740;47.696;11.746;2024-01-11T10:20:08;27.42;;;14.60;;
23466;SDS011;59740;47.696;11.746;2024-01-11T10:22:42;25.38;;;13.60;;
23466;SDS011;59740;47.696;11.746;2024-01-11T10:25:11;23.17;;;12.02;;
23466;SDS011;59740;47.696;11.746;2024-01-11T10:27:41;22.60;;;12.27;;
23466;SDS011;59740;47.696;11.746;2024-01-11T10:30:11;21.02;;;12.00;;
23466;SDS011;59740;47.696;11.746;2024-01-11T10:32:43;22.73;;;13.57;;
23466;SDS011;59740;47.696;11.746;2024-01-11T10:35:12;23.40;;;12.45;;
23466;SDS011;59740;47.696;11.746;2024-01-11T10:37:43;25.60;;;13.52;;
23466;SDS011;59740;47.696;11.746;2024-01-11T10:40:12;22.42;;;12.25;;
23466;SDS011;59740;47.696;11.746;2024-01-11T10:42:43;20.92;;;11.50;;
23466;SDS011;59740;47.696;11.746;2024-01-11T10:45:14;21.10;;;12.05;;
23466;SDS011;59740;47.696;11.746;2024-01-11T10:47:47;24.27;;;12.57;;
23466;SDS011;59740;47.696;11.746;2024-01-11T10:50:20;23.52;;;12.93;;
23466;SDS011;59740;47.696;11.746;2024-01-11T10:52:56;23.30;;;12.60;;
23466;SDS011;59740;47.696;11.746;2024-01-11T10:55:32;23.92;;;12.55;;
23466;SDS011;59740;47.696;11.746;2024-01-11T10:58:01;22.15;;;12.25;;
23466;SDS011;59740;47.696;11.746;2024-01-11T11:00:31;19.85;;;11.50;;
23466;SDS011;59740;47.696;11.746;2024-01-11T11:03:00;21.33;;;11.93;;
23466;SDS011;59740;47.696;11.746;2024-01-11T11:05:34;19.83;;;12.02;;
23466;SDS011;59740;47.696;11.746;2024-01-11T11:08:05;20.85;;;11.88;;
23466;SDS011;59740;47.696;11.746;2024-01-11T11:10:34;20.38;;;12.05;;
23466;SDS011;59740;47.696;11.746;2024-01-11T11:13:04;22.83;;;12.82;;
23466;SDS011;59740;47.696;11.746;2024-01-11T11:15:33;22.98;;;12.05;;
23466;SDS011;59740;47.696;11.746;2024-01-11T11:18:05;18.73;;;11.15;;
23466;SDS011;59740;47.696;11.746;2024-01-11T11:20:34;23.27;;;13.00;;
23466;SDS011;59740;47.696;11.746;2024-01-11T11:23:04;24.48;;;12.73;;
23466;SDS011;59740;47.696;11.746;2024-01-11T11:25:34;19.55;;;11.20;;
23466;SDS011;59740;47.696;11.746;2024-01-11T11:28:02;20.30;;;12.50;;
23466;SDS011;59740;47.696;11.746;2024-01-11T11:30:32;21.48;;;12.25;;
23466;SDS011;59740;47.696;11.746;2024-01-11T11:33:08;22.13;;;12.90;;
23466;SDS011;59740;47.696;11.746;2024-01-11T11:35:38;22.50;;;12.18;;
23466;SDS011;59740;47.696;11.746;2024-01-11T11:38:08;20.55;;;11.93;;
23466;SDS011;59740;47.696;11.746;2024-01-11T11:40:46;25.25;;;13.40;;
23466;SDS011;59740;47.696;11.746;2024-01-11T11:43:15;24.63;;;14.30;;
23466;SDS011;59740;47.696;11.746;2024-01-11T11:45:45;23.80;;;13.70;;
23466;SDS011;59740;47.696;11.746;2024-01-11T11:51:22;26.02;;;14.18;;
23466;SDS011;59740;47.696;11.746;2024-01-11T11:53:56;27.48;;;15.25;;
23466;SDS011;59740;47.696;11.746;2024-01-11T11:56:26;26.65;;;14.80;;
23466;SDS011;59740;47.696;11.746;2024-01-11T11:58:55;29.85;;;16.05;;
23466;SDS011;59740;47.696;11.746;2024-01-11T12:01:23;26.83;;;14.40;;
23466;SDS011;59740;47.696;11.746;2024-01-11T12:03:52;25.52;;;14.85;;
23466;SDS011;59740;47.696;11.746;2024-01-11T12:06:21;26.80;;;15.55;;
23466;SDS011;59740;47.696;11.746;2024-01-11T12:08:53;26.48;;;14.90;;
23466;SDS011;59740;47.696;11.746;2024-01-11T12:11:25;25.45;;;15.95;;
23466;SDS011;59740;47.696;11.746;2024-01-11T12:13:54;28.15;;;15.45;;
23466;SDS011;59740;47.696;11.746;2024-01-11T12:16:24;30.08;;;15.30;;
23466;SDS011;59740;47.696;11.746;2024-01-11T12:18:52;26.77;;;14.27;;
23466;SDS011;59740;47.696;11.746;2024-01-11T12:21:21;24.77;;;13.75;;
23466;SDS011;59740;47.696;11.746;2024-01-11T12:23:50;21.92;;;12.68;;
23466;SDS011;59740;47.696;11.746;2024-01-11T12:26:18;21.92;;;12.23;;
23466;SDS011;59740;47.696;11.746;2024-01-11T12:28:51;21.48;;;11.98;;
23466;SDS011;59740;47.696;11.746;2024-01-11T12:31:21;20.65;;;11.68;;
23466;SDS011;59740;47.696;11.746;2024-01-11T12:33:50;20.70;;;12.20;;
23466;SDS011;59740;47.696;11.746;2024-01-11T12:36:20;21.73;;;12.98;;
23466;SDS011;59740;47.696;11.746;2024-01-11T12:38:49;22.10;;;11.82;;
23466;SDS011;59740;47.696;11.746;2024-01-11T12:41:20;21.70;;;13.02;;
23466;SDS011;59740;47.696;11.746;2024-01-11T12:43:52;23.00;;;13.55;;
23466;SDS011;59740;47.696;11.746;2024-01-11T12:46:21;22.67;;;12.68;;
23466;SDS011;59740;47.696;11.746;2024-01-11T12:48:50;23.95;;;13.35;;
23466;SDS011;59740;47.696;11.746;2024-01-11T12:51:19;21.98;;;13.00;;
23466;SDS011;59740;47.696;11.746;2024-01-11T12:53:50;25.02;;;13.35;;
23466;SDS011;59740;47.696;11.746;2024-01-11T12:56:20;22.38;;;13.45;;
23466;SDS011;59740;47.696;11.746;2024-01-11T12:58:50;23.35;;;13.20;;
23466;SDS011;59740;47.696;11.746;2024-01-11T13:01:20;23.17;;;13.43;;
23466;SDS011;59740;47.696;11.746;2024-01-11T13:03:49;22.60;;;13.52;;
23466;SDS011;59740;47.696;11.746;2024-01-11T13:06:17;25.35;;;13.65;;
23466;SDS011;59740;47.696;11.746;2024-01-11T13:08:47;21.63;;;12.90;;
23466;SDS011;59740;47.696;11.746;2024-01-11T13:11:16;23.05;;;13.60;;
23466;SDS011;59740;47.696;11.746;2024-01-11T13:13:48;20.52;;;12.75;;
23466;SDS011;59740;47.696;11.746;2024-01-11T13:16:16;22.98;;;14.10;;
23466;SDS011;59740;47.696;11.746;2024-01-11T13:18:47;23.92;;;13.80;;
23466;SDS011;59740;47.696;11.746;2024-01-11T13:21:16;24.40;;;13.98;;
23466;SDS011;59740;47.696;11.746;2024-01-11T13:23:45;23.63;;;13.32;;
23466;SDS011;59740;47.696;11.746;2024-01-11T13:26:14;25.30;;;13.63;;
23466;SDS011;59740;47.696;11.746;2024-01-11T13:28:42;24.40;;;13.88;;
23466;SDS011;59740;47.696;11.746;2024-01-11T13:31:10;21.75;;;12.38;;
23466;SDS011;59740;47.696;11.746;2024-01-11T13:33:39;20.88;;;12.25;;
23466;SDS011;59740;47.696;11.746;2024-01-11T13:36:09;22.67;;;12.95;;
23466;SDS011;59740;47.696;11.746;2024-01-11T13:38:37;22.02;;;12.38;;
23466;SDS011;59740;47.696;11.746;2024-01-11T13:41:06;21.58;;;12.63;;
23466;SDS011;59740;47.696;11.746;2024-01-11T13:43:35;29.38;;;17.83;;
23466;SDS011;59740;47.696;11.746;2024-01-11T13:46:04;22.05;;;14.20;;
23466;SDS011;59740;47.696;11.746;2024-01-11T13:48:33;23.70;;;12.32;;
23466;SDS011;59740;47.696;11.746;2024-01-11T13:51:02;23.05;;;12.40;;
23466;SDS011;59740;47.696;11.746;2024-01-11T13:53:32;24.85;;;13.43;;
23466;SDS011;59740;47.696;11.746;2024-01-11T13:56:01;23.15;;;13.52;;
23466;SDS011;59740;47.696;11.746;2024-01-11T13:58:30;24.40;;;12.90;;
23466;SDS011;59740;47.696;11.746;2024-01-11T14:00:58;22.67;;;12.75;;
23466;SDS011;59740;47.696;11.746;2024-01-11T14:03:27;22.08;;;13.60;;
23466;SDS011;59740;47.696;11.746;2024-01-11T14:05:55;22.10;;;12.57;;
23466;SDS011;59740;47.696;11.746;2024-01-11T14:08:24;25.50;;;14.05;;
23466;SDS011;59740;47.696;11.746;2024-01-11T14:10:54;24.13;;;13.20;;
23466;SDS011;59740;47.696;11.746;2024-01-11T14:13:23;21.73;;;12.40;;
23466;SDS011;59740;47.696;11.746;2024-01-11T14:15:52;24.15;;;13.40;;
23466;SDS011;59740;47.696;11.746;2024-01-11T14:18:22;23.73;;;12.80;;
23466;SDS011;59740;47.696;11.746;2024-01-11T14:20:51;22.35;;;12.50;;
23466;SDS011;59740;47.696;11.746;2024-01-11T14:23:20;22.52;;;12.38;;
23466;SDS011;59740;47.696;11.746;2024-01-11T14:25:49;24.38;;;12.98;;
23466;SDS011;59740;47.696;11.746;2024-01-11T14:28:19;20.90;;;11.93;;
23466;SDS011;59740;47.696;11.746;2024-01-11T14:30:49;22.77;;;12.70;;